Time;durP1;ratioP1;P1;durP2;ratioP2;P2;SDS_P1;SDS_P2;PMS_P1;PMS_P2;Temp;Humidity;BMP_temperature;BMP_pressure;BME280_temperature;BME280_humidity;BME280_pressure;Samples;Min_cycle;Max_cycle;Signal;HPM_P1;HPM_P2
2021/05/05 00:00:30;;;;;;;619.55;319.13;;;;;;;;;;5005994;28;20545;-83
2021/05/05 00:02:56;;;;;;;647.17;328.63;;;;;;;;;;5001288;28;20078;-83
2021/05/05 00:05:23;;;;;;;1034.07;593.60;;;;;;;;;;5007028;28;20033;-81
2021/05/05 00:07:49;;;;;;;659.75;343.17;;;;;;;;;;5009712;28;20045;-83
2021/05/05 00:10:16;;;;;;;664.03;340.63;;;;;;;;;;5019949;28;20124;-82
2021/05/05 00:12:42;;;;;;;641.50;264.38;;;;;;;;;;5015946;28;20662;-82
2021/05/05 00:15:11;;;;;;;847.83;467.92;;;;;;;;;;5007545;28;20099;-85
2021/05/05 00:17:37;;;;;;;588.00;245.90;;;;;;;;;;5004275;28;20031;-83
2021/05/05 00:20:04;;;;;;;947.80;502.90;;;;;;;;;;5002253;28;20029;-82
2021/05/05 00:22:33;;;;;;;952.97;600.00;;;;;;;;;;5009414;28;20029;-82
2021/05/05 00:24:59;;;;;;;686.55;351.35;;;;;;;;;;5023152;28;20124;-84
2021/05/05 00:27:25;;;;;;;665.05;341.88;;;;;;;;;;5042853;28;20120;-85
2021/05/05 00:29:52;;;;;;;666.42;336.60;;;;;;;;;;5028303;28;20082;-85
2021/05/05 00:32:18;;;;;;;679.38;344.52;;;;;;;;;;5030551;28;20360;-85
2021/05/05 00:34:44;;;;;;;666.80;336.55;;;;;;;;;;5025391;28;20482;-83
2021/05/05 00:37:10;;;;;;;721.55;378.50;;;;;;;;;;5025138;28;20036;-83
2021/05/05 00:39:36;;;;;;;661.25;216.88;;;;;;;;;;5027182;28;20102;-85
2021/05/05 00:42:03;;;;;;;662.15;269.67;;;;;;;;;;5040011;28;20021;-86
2021/05/05 00:44:29;;;;;;;812.05;289.48;;;;;;;;;;5026971;28;20026;-82
2021/05/05 00:46:55;;;;;;;491.80;260.63;;;;;;;;;;5018736;28;20397;-88
2021/05/05 00:49:21;;;;;;;513.40;278.05;;;;;;;;;;5023275;28;20022;-84
2021/05/05 00:51:47;;;;;;;782.25;442.38;;;;;;;;;;5024233;28;20021;-80
2021/05/05 00:54:13;;;;;;;580.53;302.33;;;;;;;;;;5030089;28;20028;-84
2021/05/05 00:56:39;;;;;;;691.40;362.63;;;;;;;;;;5024168;28;20029;-84
2021/05/05 00:59:05;;;;;;;692.22;343.90;;;;;;;;;;5024775;28;20033;-85
2021/05/05 01:01:31;;;;;;;690.28;336.88;;;;;;;;;;5026058;28;20078;-88
2021/05/05 01:03:57;;;;;;;711.55;363.83;;;;;;;;;;5028291;28;20033;-85
2021/05/05 01:06:24;;;;;;;761.95;395.33;;;;;;;;;;5026005;28;20052;-86
2021/05/05 01:08:50;;;;;;;590.08;299.95;;;;;;;;;;5029387;28;20071;-84
2021/05/05 01:11:16;;;;;;;721.75;370.25;;;;;;;;;;5031362;28;20072;-86
2021/05/05 01:13:45;;;;;;;704.50;366.02;;;;;;;;;;5031192;28;20041;-82
2021/05/05 01:16:15;;;;;;;739.75;385.08;;;;;;;;;;5024747;28;20025;-85
2021/05/05 01:18:41;;;;;;;521.17;275.90;;;;;;;;;;5048435;28;20048;-85
2021/05/05 01:21:07;;;;;;;511.10;276.95;;;;;;;;;;5030511;28;20116;-85
2021/05/05 01:23:33;;;;;;;518.67;275.30;;;;;;;;;;5030434;28;20017;-84
2021/05/05 01:25:59;;;;;;;529.40;283.63;;;;;;;;;;5025293;28;20032;-85
2021/05/05 01:28:25;;;;;;;533.25;285.20;;;;;;;;;;5026692;28;20090;-85
2021/05/05 01:30:51;;;;;;;518.60;281.60;;;;;;;;;;5043404;28;20029;-82
2021/05/05 01:33:17;;;;;;;505.15;267.38;;;;;;;;;;5049000;28;20274;-81
2021/05/05 01:35:46;;;;;;;618.63;333.05;;;;;;;;;;5023917;28;20036;-85
2021/05/05 01:38:12;;;;;;;547.15;294.08;;;;;;;;;;5030035;28;20469;-81
2021/05/05 01:40:39;;;;;;;652.33;330.70;;;;;;;;;;5030837;28;20029;-82
2021/05/05 01:43:07;;;;;;;490.50;270.45;;;;;;;;;;5027414;28;20032;-83
2021/05/05 01:45:34;;;;;;;461.42;261.48;;;;;;;;;;5048162;28;20028;-81
2021/05/05 01:48:01;;;;;;;457.17;261.00;;;;;;;;;;5028335;28;20169;-82
2021/05/05 01:50:27;;;;;;;449.95;262.60;;;;;;;;;;5029714;28;20127;-82
2021/05/05 01:52:54;;;;;;;454.08;261.38;;;;;;;;;;5024043;28;20415;-85
2021/05/05 01:55:20;;;;;;;455.08;256.70;;;;;;;;;;5029003;28;20024;-80
2021/05/05 01:57:46;;;;;;;449.63;265.77;;;;;;;;;;5026470;28;20059;-81
2021/05/05 02:00:18;;;;;;;453.60;270.60;;;;;;;;;;5026211;28;20029;-80
2021/05/05 02:02:44;;;;;;;455.00;265.48;;;;;;;;;;5029303;28;20056;-83
2021/05/05 02:05:11;;;;;;;456.45;265.13;;;;;;;;;;5026242;28;20496;-82
2021/05/05 02:07:37;;;;;;;446.27;259.40;;;;;;;;;;5028559;28;20048;-82
2021/05/05 02:10:08;;;;;;;454.58;267.65;;;;;;;;;;5028433;28;20025;-81
2021/05/05 02:12:34;;;;;;;449.63;267.33;;;;;;;;;;5028115;28;20523;-83
2021/05/05 02:15:00;;;;;;;460.50;257.08;;;;;;;;;;5027580;28;20087;-83
2021/05/05 02:17:26;;;;;;;451.02;255.05;;;;;;;;;;5038082;28;20036;-83
2021/05/05 02:19:52;;;;;;;454.60;256.67;;;;;;;;;;5045906;28;20400;-82
2021/05/05 02:22:18;;;;;;;455.52;263.08;;;;;;;;;;5027749;28;20029;-83
2021/05/05 02:24:44;;;;;;;456.25;261.17;;;;;;;;;;5028846;28;20219;-83
2021/05/05 02:27:10;;;;;;;473.85;258.48;;;;;;;;;;5046439;28;20060;-82
2021/05/05 02:29:36;;;;;;;471.63;264.33;;;;;;;;;;5026714;28;20032;-83
2021/05/05 02:32:04;;;;;;;460.25;261.90;;;;;;;;;;5032509;28;20317;-83
2021/05/05 02:34:30;;;;;;;465.10;258.02;;;;;;;;;;5027694;28;20067;-83
2021/05/05 02:36:56;;;;;;;459.25;258.20;;;;;;;;;;5026137;28;20804;-84
2021/05/05 02:39:22;;;;;;;453.80;256.95;;;;;;;;;;5025520;28;20018;-85
2021/05/05 02:41:48;;;;;;;455.33;264.30;;;;;;;;;;5028858;28;20327;-80
2021/05/05 02:44:15;;;;;;;456.67;255.45;;;;;;;;;;5027803;28;20021;-79
2021/05/05 02:46:41;;;;;;;468.13;259.48;;;;;;;;;;5028475;28;20450;-80
2021/05/05 02:49:08;;;;;;;465.20;263.00;;;;;;;;;;5046017;28;20103;-80
2021/05/05 02:51:35;;;;;;;454.95;259.58;;;;;;;;;;5024670;28;20029;-80
2021/05/05 02:54:01;;;;;;;453.52;259.50;;;;;;;;;;5043619;28;20022;-81
2021/05/05 02:56:27;;;;;;;456.85;266.90;;;;;;;;;;5022274;28;20063;-81
2021/05/05 02:58:53;;;;;;;446.48;257.10;;;;;;;;;;5026346;28;20102;-81
2021/05/05 03:01:19;;;;;;;451.17;255.35;;;;;;;;;;5027522;28;20025;-83
2021/05/05 03:03:45;;;;;;;457.05;263.58;;;;;;;;;;5023671;28;20116;-80
2021/05/05 03:06:11;;;;;;;450.73;253.65;;;;;;;;;;5043554;28;20095;-81
2021/05/05 03:08:37;;;;;;;439.88;250.45;;;;;;;;;;5038979;28;20021;-82
2021/05/05 03:11:03;;;;;;;448.23;256.58;;;;;;;;;;5027098;28;20029;-81
2021/05/05 03:13:29;;;;;;;457.33;265.73;;;;;;;;;;5027022;28;20393;-83
2021/05/05 03:15:56;;;;;;;451.30;260.90;;;;;;;;;;5027722;28;20083;-83
2021/05/05 03:18:22;;;;;;;448.55;255.68;;;;;;;;;;5041551;28;20056;-81
2021/05/05 03:20:48;;;;;;;447.35;257.92;;;;;;;;;;5027575;28;20020;-82
2021/05/05 03:23:14;;;;;;;445.33;254.05;;;;;;;;;;5026432;28;20024;-85
2021/05/05 03:25:40;;;;;;;443.48;255.10;;;;;;;;;;5026896;28;20024;-86
2021/05/05 03:28:07;;;;;;;444.98;252.52;;;;;;;;;;5027324;28;20029;-85
2021/05/05 03:30:33;;;;;;;449.45;259.35;;;;;;;;;;5030426;28;20111;-84
2021/05/05 03:32:59;;;;;;;438.27;256.63;;;;;;;;;;5030535;28;20124;-87
2021/05/05 03:35:25;;;;;;;436.48;254.98;;;;;;;;;;5027177;28;20063;-84
2021/05/05 03:37:51;;;;;;;446.33;249.15;;;;;;;;;;5023364;28;20025;-86
2021/05/05 03:40:17;;;;;;;434.88;246.90;;;;;;;;;;5030598;28;20746;-85
2021/05/05 03:42:43;;;;;;;450.20;258.13;;;;;;;;;;5022807;28;20083;-83
2021/05/05 03:45:09;;;;;;;447.20;257.90;;;;;;;;;;5027406;28;20029;-84
2021/05/05 03:47:37;;;;;;;454.05;255.18;;;;;;;;;;5041990;28;20051;-88
2021/05/05 03:50:03;;;;;;;459.90;257.23;;;;;;;;;;5029575;28;20086;-85
2021/05/05 03:52:29;;;;;;;456.40;262.02;;;;;;;;;;5023097;28;20361;-85
2021/05/05 03:54:55;;;;;;;452.42;259.85;;;;;;;;;;5029737;28;20036;-86
2021/05/05 03:57:21;;;;;;;456.15;254.80;;;;;;;;;;5028643;28;20589;-85
2021/05/05 03:59:47;;;;;;;453.50;255.48;;;;;;;;;;5027741;28;20029;-82
2021/05/05 04:02:13;;;;;;;446.90;256.27;;;;;;;;;;5030083;28;20036;-82
2021/05/05 04:04:39;;;;;;;445.65;249.73;;;;;;;;;;5028815;28;20018;-85
2021/05/05 04:07:05;;;;;;;441.48;252.88;;;;;;;;;;5025309;28;20036;-85
2021/05/05 04:09:31;;;;;;;448.95;256.25;;;;;;;;;;5024119;28;20040;-83
2021/05/05 04:11:57;;;;;;;445.92;249.40;;;;;;;;;;5025286;28;20025;-84
2021/05/05 04:14:23;;;;;;;441.02;260.88;;;;;;;;;;5028742;28;20385;-84
2021/05/05 04:16:49;;;;;;;446.42;255.90;;;;;;;;;;5027529;28;20478;-84
2021/05/05 04:19:15;;;;;;;444.42;254.70;;;;;;;;;;5046904;28;20147;-86
2021/05/05 04:21:41;;;;;;;446.35;253.13;;;;;;;;;;5028460;28;20026;-85
2021/05/05 04:24:07;;;;;;;448.70;251.82;;;;;;;;;;5025017;28;20033;-83
2021/05/05 04:26:34;;;;;;;442.85;246.95;;;;;;;;;;5024356;28;20060;-85
2021/05/05 04:29:00;;;;;;;452.15;256.63;;;;;;;;;;5022752;28;20484;-82
2021/05/05 04:31:26;;;;;;;443.15;259.50;;;;;;;;;;5025988;28;20030;-83
2021/05/05 04:33:53;;;;;;;440.70;252.45;;;;;;;;;;5029271;28;20392;-82
2021/05/05 04:36:19;;;;;;;439.13;243.98;;;;;;;;;;5025924;28;20032;-85
2021/05/05 04:38:45;;;;;;;448.73;254.65;;;;;;;;;;5028793;28;20033;-84
2021/05/05 04:41:11;;;;;;;441.83;247.35;;;;;;;;;;5029064;28;20021;-84
2021/05/05 04:43:37;;;;;;;446.38;258.15;;;;;;;;;;5028980;28;20025;-83
2021/05/05 04:46:03;;;;;;;442.27;252.88;;;;;;;;;;5037219;28;20516;-86
2021/05/05 04:48:30;;;;;;;456.20;254.90;;;;;;;;;;5056700;28;20029;-85
2021/05/05 04:50:56;;;;;;;451.85;252.50;;;;;;;;;;5038511;28;20599;-86
2021/05/05 04:53:23;;;;;;;438.00;249.48;;;;;;;;;;5056099;28;20426;-86
2021/05/05 04:55:50;;;;;;;442.15;247.75;;;;;;;;;;5023730;28;20029;-82
2021/05/05 04:58:16;;;;;;;451.95;263.38;;;;;;;;;;5038532;28;20080;-83
2021/05/05 05:00:42;;;;;;;444.85;256.40;;;;;;;;;;5055849;28;20037;-83
2021/05/05 05:03:08;;;;;;;444.52;255.40;;;;;;;;;;5033644;28;20021;-83
2021/05/05 05:05:34;;;;;;;441.63;250.80;;;;;;;;;;5033472;28;20025;-84
2021/05/05 05:08:00;;;;;;;432.40;256.60;;;;;;;;;;5037766;28;20058;-85
2021/05/05 05:10:26;;;;;;;425.98;242.82;;;;;;;;;;5037869;28;20029;-85
2021/05/05 05:12:52;;;;;;;432.08;248.35;;;;;;;;;;5037905;28;20041;-83
2021/05/05 05:15:18;;;;;;;431.15;252.23;;;;;;;;;;5036765;28;20036;-82
2021/05/05 05:17:44;;;;;;;431.55;246.50;;;;;;;;;;5038025;28;20644;-86
2021/05/05 05:20:10;;;;;;;426.42;242.23;;;;;;;;;;5035701;28;20029;-84
2021/05/05 05:22:39;;;;;;;439.02;255.93;;;;;;;;;;5047649;28;20014;-84
2021/05/05 05:25:06;;;;;;;431.70;253.18;;;;;;;;;;5033561;28;20056;-84
2021/05/05 05:27:32;;;;;;;435.85;256.08;;;;;;;;;;5038345;28;20484;-85
2021/05/05 05:29:59;;;;;;;429.08;255.15;;;;;;;;;;5035790;28;20507;-87
2021/05/05 05:32:25;;;;;;;440.05;262.60;;;;;;;;;;5037192;28;20028;-87
2021/05/05 05:34:51;;;;;;;435.17;253.60;;;;;;;;;;5037618;28;20423;-85
2021/05/05 05:37:17;;;;;;;443.27;262.73;;;;;;;;;;5029615;28;20424;-82
2021/05/05 05:39:45;;;;;;;430.15;246.90;;;;;;;;;;5030921;28;20689;-85
2021/05/05 05:42:11;;;;;;;433.52;251.63;;;;;;;;;;5056168;28;20020;-83
2021/05/05 05:44:37;;;;;;;446.98;253.80;;;;;;;;;;5036769;28;20021;-82
2021/05/05 05:47:03;;;;;;;444.15;256.08;;;;;;;;;;5037435;28;20095;-82
2021/05/05 05:49:29;;;;;;;462.05;259.30;;;;;;;;;;5037355;28;20389;-80
2021/05/05 05:51:55;;;;;;;440.67;247.65;;;;;;;;;;5035207;28;20021;-84
2021/05/05 05:54:21;;;;;;;439.98;249.85;;;;;;;;;;5023172;28;20036;-87
2021/05/05 05:56:47;;;;;;;442.10;256.17;;;;;;;;;;5052385;28;20033;-84
2021/05/05 05:59:13;;;;;;;443.58;257.73;;;;;;;;;;5054621;28;20071;-81
2021/05/05 06:01:39;;;;;;;446.85;254.80;;;;;;;;;;5025316;28;20469;-86
2021/05/05 06:04:05;;;;;;;457.23;273.02;;;;;;;;;;5049447;28;20025;-86
2021/05/05 06:06:31;;;;;;;457.63;275.05;;;;;;;;;;5019290;28;20544;-81
2021/05/05 06:08:57;;;;;;;458.83;265.55;;;;;;;;;;5048269;28;20033;-84
2021/05/05 06:11:23;;;;;;;453.67;267.42;;;;;;;;;;5038259;28;20480;-81
2021/05/05 06:13:49;;;;;;;451.35;257.77;;;;;;;;;;5037285;28;20029;-87
2021/05/05 06:16:15;;;;;;;459.10;269.45;;;;;;;;;;5036873;28;20039;-83
2021/05/05 06:18:41;;;;;;;457.17;268.30;;;;;;;;;;5051332;28;20024;-85
2021/05/05 06:21:07;;;;;;;453.98;261.10;;;;;;;;;;5032804;28;20017;-86
2021/05/05 06:23:33;;;;;;;446.10;263.20;;;;;;;;;;5034685;28;20021;-82
2021/05/05 06:25:59;;;;;;;459.30;273.13;;;;;;;;;;5033611;28;20032;-85
2021/05/05 06:28:25;;;;;;;447.00;266.23;;;;;;;;;;5036013;28;20140;-81
2021/05/05 06:30:54;;;;;;;451.08;261.75;;;;;;;;;;5042904;28;20731;-82
2021/05/05 06:33:20;;;;;;;444.50;255.57;;;;;;;;;;5031406;28;20055;-80
2021/05/05 06:35:46;;;;;;;451.98;266.88;;;;;;;;;;5036279;28;20116;-87
2021/05/05 06:38:12;;;;;;;461.92;270.35;;;;;;;;;;5034899;28;20067;-81
2021/05/05 06:40:38;;;;;;;455.33;267.42;;;;;;;;;;5036373;28;20519;-85
2021/05/05 06:43:04;;;;;;;468.73;273.92;;;;;;;;;;5035820;28;20032;-85
2021/05/05 06:45:30;;;;;;;475.67;275.65;;;;;;;;;;5036983;28;20112;-81
2021/05/05 06:47:56;;;;;;;474.58;273.92;;;;;;;;;;5035838;28;20091;-81
2021/05/05 06:50:23;;;;;;;459.85;266.70;;;;;;;;;;5035861;28;20059;-86
2021/05/05 06:52:49;;;;;;;466.35;276.60;;;;;;;;;;5053287;28;20021;-80
2021/05/05 06:55:15;;;;;;;464.42;272.52;;;;;;;;;;5044076;28;20025;-81
2021/05/05 06:57:41;;;;;;;462.33;257.60;;;;;;;;;;5031062;28;20030;-84
2021/05/05 07:00:08;;;;;;;466.83;259.42;;;;;;;;;;5017601;28;20033;-79
2021/05/05 07:02:34;;;;;;;454.48;268.67;;;;;;;;;;5031921;28;20075;-83
2021/05/05 07:05:00;;;;;;;446.73;259.17;;;;;;;;;;5036027;28;20037;-82
2021/05/05 07:07:30;;;;;;;439.98;257.95;;;;;;;;;;5035857;28;20043;-77
2021/05/05 07:09:56;;;;;;;439.77;248.63;;;;;;;;;;5008072;28;20034;-84
2021/05/05 07:12:22;;;;;;;454.08;256.38;;;;;;;;;;5038297;28;20021;-82
2021/05/05 07:14:49;;;;;;;441.73;256.08;;;;;;;;;;5035521;28;20032;-79
2021/05/05 07:17:15;;;;;;;444.33;263.75;;;;;;;;;;5033560;28;20389;-84
2021/05/05 07:19:41;;;;;;;444.25;256.60;;;;;;;;;;5025666;28;20074;-84
2021/05/05 07:22:07;;;;;;;452.67;260.48;;;;;;;;;;5050581;28;20920;-79
2021/05/05 07:24:33;;;;;;;456.30;270.48;;;;;;;;;;5032083;28;20024;-79
2021/05/05 07:26:59;;;;;;;452.48;263.73;;;;;;;;;;5032047;28;20035;-82
2021/05/05 07:29:25;;;;;;;454.45;268.98;;;;;;;;;;5053532;28;20103;-81
2021/05/05 07:31:51;;;;;;;454.83;270.70;;;;;;;;;;5021897;28;20422;-84
2021/05/05 07:34:18;;;;;;;469.70;279.00;;;;;;;;;;5022535;28;20124;-78
2021/05/05 07:36:47;;;;;;;478.42;273.35;;;;;;;;;;5050170;28;20043;-83
2021/05/05 07:47:27;;;;;;;497.52;290.10;;;;;;;;;;5042022;28;20451;-83
2021/05/05 07:49:55;;;;;;;641.47;351.67;;;;;;;;;;5026684;28;20406;-82
2021/05/05 07:52:22;;;;;;;636.53;349.20;;;;;;;;;;5019986;28;20034;-83
2021/05/05 07:54:49;;;;;;;612.72;338.83;;;;;;;;;;5024543;28;20025;-82
2021/05/05 07:57:19;;;;;;;643.22;358.17;;;;;;;;;;5027586;28;20484;-81
2021/05/05 07:59:45;;;;;;;634.17;357.07;;;;;;;;;;5030705;28;20127;-82
2021/05/05 08:02:13;;;;;;;611.38;346.02;;;;;;;;;;5024709;28;20457;-83
2021/05/05 08:04:48;;;;;;;646.67;353.85;;;;;;;;;;5018899;28;20132;-79
2021/05/05 08:07:15;;;;;;;595.58;322.77;;;;;;;;;;5052288;28;20127;-78
2021/05/05 08:09:41;;;;;;;582.13;320.17;;;;;;;;;;5030010;28;20036;-84
2021/05/05 08:12:07;;;;;;;626.20;327.75;;;;;;;;;;5046913;28;20025;-80
2021/05/05 08:14:33;;;;;;;602.33;316.48;;;;;;;;;;5026358;28;20612;-79
2021/05/05 08:17:24;;;;;;;652.17;343.08;;;;;;;;;;5033721;28;20025;-85
2021/05/05 08:19:50;;;;;;;498.77;277.95;;;;;;;;;;5031272;28;20033;-83
2021/05/05 08:22:16;;;;;;;472.42;282.90;;;;;;;;;;5018166;28;20030;-79
2021/05/05 08:24:43;;;;;;;465.23;288.63;;;;;;;;;;5030978;28;20124;-81
2021/05/05 08:27:09;;;;;;;475.42;312.60;;;;;;;;;;5033255;28;20021;-80
2021/05/05 08:29:35;;;;;;;461.23;296.85;;;;;;;;;;5032727;28;20028;-79
2021/05/05 08:32:02;;;;;;;456.20;292.20;;;;;;;;;;5031407;28;20028;-80
2021/05/05 08:34:29;;;;;;;451.40;283.83;;;;;;;;;;5046954;28;20075;-79
2021/05/05 08:36:56;;;;;;;452.00;284.98;;;;;;;;;;5049607;28;20013;-85
2021/05/05 08:39:23;;;;;;;453.88;293.42;;;;;;;;;;5047659;28;20021;-77
2021/05/05 08:41:50;;;;;;;462.40;299.05;;;;;;;;;;5020023;28;20021;-83
2021/05/05 08:44:16;;;;;;;458.02;312.00;;;;;;;;;;5025179;28;20132;-80
2021/05/05 08:46:44;;;;;;;461.45;317.98;;;;;;;;;;5032616;28;20122;-83
2021/05/05 08:49:10;;;;;;;466.67;330.80;;;;;;;;;;5051218;28;20045;-83
2021/05/05 08:51:37;;;;;;;464.20;327.20;;;;;;;;;;5036711;28;20087;-80
2021/05/05 08:54:07;;;;;;;461.13;317.25;;;;;;;;;;5051724;28;20047;-82
2021/05/05 08:56:37;;;;;;;471.65;310.83;;;;;;;;;;5031132;28;20032;-79
2021/05/05 08:59:04;;;;;;;449.30;292.95;;;;;;;;;;5051444;28;20086;-78
2021/05/05 09:01:30;;;;;;;455.70;285.58;;;;;;;;;;5028438;28;20021;-79
2021/05/05 09:03:56;;;;;;;456.80;276.27;;;;;;;;;;5035726;28;20055;-80
2021/05/05 09:06:41;;;;;;;460.10;271.67;;;;;;;;;;5045962;28;20036;-80
2021/05/05 09:09:07;;;;;;;475.73;267.40;;;;;;;;;;5029198;28;20046;-80
2021/05/05 09:11:46;;;;;;;476.92;268.27;;;;;;;;;;5030738;28;20033;-80
2021/05/05 09:14:12;;;;;;;522.13;275.58;;;;;;;;;;5022564;28;20043;-78
2021/05/05 09:16:38;;;;;;;484.58;274.40;;;;;;;;;;5029653;28;20079;-82
2021/05/05 09:19:09;;;;;;;644.33;362.77;;;;;;;;;;5028386;28;20023;-84
2021/05/05 09:21:41;;;;;;;696.53;428.45;;;;;;;;;;5032742;28;20534;-82
2021/05/05 09:24:21;;;;;;;678.40;422.25;;;;;;;;;;5030282;28;20695;-83
2021/05/05 09:26:48;;;;;;;657.65;392.33;;;;;;;;;;5030482;28;20044;-79
2021/05/05 09:29:14;;;;;;;595.80;344.90;;;;;;;;;;5032613;28;20063;-85
2021/05/05 09:31:41;;;;;;;606.20;350.85;;;;;;;;;;5027356;28;20047;-85
2021/05/05 09:34:10;;;;;;;690.00;397.73;;;;;;;;;;5025541;28;20131;-80
2021/05/05 09:36:36;;;;;;;643.10;390.50;;;;;;;;;;5039683;28;20037;-83
2021/05/05 09:39:04;;;;;;;663.00;431.83;;;;;;;;;;5026122;28;20026;-83
2021/05/05 09:41:31;;;;;;;641.78;447.67;;;;;;;;;;5026950;28;20025;-82
2021/05/05 09:44:08;;;;;;;754.97;555.22;;;;;;;;;;5024923;28;20083;-85
2021/05/05 09:46:46;;;;;;;662.42;463.60;;;;;;;;;;5027008;28;20048;-80
2021/05/05 09:49:18;;;;;;;641.35;432.88;;;;;;;;;;5027444;28;20502;-79
2021/05/05 09:51:44;;;;;;;682.30;441.75;;;;;;;;;;5044014;28;20060;-85
2021/05/05 09:54:11;;;;;;;662.90;407.20;;;;;;;;;;5044916;28;20084;-79
2021/05/05 09:56:44;;;;;;;675.97;396.13;;;;;;;;;;5023578;28;20033;-80
2021/05/05 09:59:10;;;;;;;651.30;369.00;;;;;;;;;;5022923;28;20033;-85
2021/05/05 10:01:37;;;;;;;615.25;341.00;;;;;;;;;;5022763;28;20164;-82
2021/05/05 10:04:04;;;;;;;657.80;364.50;;;;;;;;;;5044248;28;20025;-80
2021/05/05 10:06:31;;;;;;;688.55;377.83;;;;;;;;;;5023834;28;20033;-80
2021/05/05 10:09:03;;;;;;;615.30;329.17;;;;;;;;;;5026928;28;20069;-79
2021/05/05 10:11:31;;;;;;;629.28;338.13;;;;;;;;;;5027269;28;20033;-84
2021/05/05 10:14:01;;;;;;;628.50;343.45;;;;;;;;;;5029169;28;20404;-81
2021/05/05 10:16:28;;;;;;;660.05;353.83;;;;;;;;;;5031829;28;20029;-83
2021/05/05 10:18:54;;;;;;;642.13;341.33;;;;;;;;;;5037250;28;20021;-86
2021/05/05 10:21:22;;;;;;;592.95;328.27;;;;;;;;;;5036826;28;20029;-83
2021/05/05 10:23:49;;;;;;;576.25;326.55;;;;;;;;;;5038894;28;20029;-82
2021/05/05 10:26:15;;;;;;;607.13;368.88;;;;;;;;;;5022322;28;20025;-83
2021/05/05 10:28:41;;;;;;;708.90;477.33;;;;;;;;;;5029861;28;20559;-78
2021/05/05 10:31:15;;;;;;;662.80;469.55;;;;;;;;;;5039038;28;20032;-85
2021/05/05 10:33:43;;;;;;;683.30;500.17;;;;;;;;;;5029367;28;20052;-80
2021/05/05 10:36:28;;;;;;;652.65;464.23;;;;;;;;;;5015461;28;20117;-81
2021/05/05 10:38:55;;;;;;;627.83;419.08;;;;;;;;;;5030459;28;20029;-82
2021/05/05 10:41:25;;;;;;;602.50;379.40;;;;;;;;;;5034201;28;20114;-79
2021/05/05 10:43:53;;;;;;;645.47;391.58;;;;;;;;;;5035176;28;20040;-79
2021/05/05 10:46:33;;;;;;;637.53;372.23;;;;;;;;;;5052329;28;20044;-81
2021/05/05 10:49:12;;;;;;;671.70;381.83;;;;;;;;;;5032851;28;20025;-88
2021/05/05 10:51:44;;;;;;;623.13;340.10;;;;;;;;;;5027568;28;20041;-84
2021/05/05 10:54:14;;;;;;;641.55;356.00;;;;;;;;;;5027575;28;20036;-80
2021/05/05 10:56:40;;;;;;;593.50;324.40;;;;;;;;;;5028237;28;20508;-82
2021/05/05 10:59:08;;;;;;;625.72;361.35;;;;;;;;;;5032077;28;20051;-81
2021/05/05 11:01:38;;;;;;;634.67;377.20;;;;;;;;;;5028803;28;20036;-83
2021/05/05 11:04:05;;;;;;;618.03;376.80;;;;;;;;;;5025238;28;20174;-79
2021/05/05 11:06:32;;;;;;;614.80;381.30;;;;;;;;;;5023904;28;20472;-81
2021/05/05 11:09:11;;;;;;;601.42;395.75;;;;;;;;;;5023712;28;20485;-83
2021/05/05 11:11:41;;;;;;;615.17;450.52;;;;;;;;;;5025210;28;20372;-80
2021/05/05 11:14:07;;;;;;;;;;;;;;;;;;5041453;28;20033;-83
2021/05/05 11:16:55;;;;;;;631.08;497.52;;;;;;;;;;5020993;28;19928;-84
2021/05/05 11:22:06;;;;;;;676.92;521.03;;;;;;;;;;5031212;28;20112;-84
2021/05/05 11:24:36;;;;;;;690.40;523.78;;;;;;;;;;5027652;28;20029;-82
2021/05/05 11:27:10;;;;;;;675.20;521.63;;;;;;;;;;5030033;28;20033;-81
2021/05/05 11:29:46;;;;;;;667.70;521.83;;;;;;;;;;5033016;28;20029;-80
2021/05/05 11:32:14;;;;;;;638.28;493.05;;;;;;;;;;5029798;28;20056;-87
2021/05/05 11:34:42;;;;;;;607.97;463.38;;;;;;;;;;5024116;28;20035;-79
2021/05/05 11:37:28;;;;;;;611.88;484.65;;;;;;;;;;5011915;28;20030;-84
2021/05/05 11:39:58;;;;;;;613.25;483.73;;;;;;;;;;5033138;28;20084;-82
2021/05/05 11:42:25;;;;;;;661.58;537.55;;;;;;;;;;5029182;28;20027;-83
2021/05/05 11:44:55;;;;;;;625.83;491.60;;;;;;;;;;5021808;28;20501;-85
2021/05/05 11:47:21;;;;;;;;;;;;;;;;;;5029308;28;20049;-81
2021/05/05 11:49:49;;;;;;;605.55;476.95;;;;;;;;;;5030796;28;19908;-83
2021/05/05 11:52:33;;;;;;;596.03;498.55;;;;;;;;;;5032083;28;20023;-82
2021/05/05 11:55:09;;;;;;;623.10;516.90;;;;;;;;;;5032751;28;20025;-81
2021/05/05 11:57:39;;;;;;;603.53;503.92;;;;;;;;;;5030147;28;20031;-83
2021/05/05 12:00:33;;;;;;;591.47;475.55;;;;;;;;;;5024927;28;20028;-83
2021/05/05 12:03:03;;;;;;;641.25;496.15;;;;;;;;;;5043022;28;20021;-85
2021/05/05 12:05:29;;;;;;;;;;;;;;;;;;5028518;28;20045;-79
2021/05/05 12:08:16;;;;;;;584.83;415.15;;;;;;;;;;5031948;28;19915;-83
2021/05/05 12:10:45;;;;;;;594.72;419.20;;;;;;;;;;5043236;28;20043;-82
2021/05/05 12:13:16;;;;;;;585.28;404.52;;;;;;;;;;5032128;28;20401;-86
2021/05/05 12:16:02;;;;;;;586.85;415.80;;;;;;;;;;5031211;28;20127;-85
2021/05/05 12:18:35;;;;;;;604.13;430.38;;;;;;;;;;5028716;28;20488;-83
2021/05/05 12:21:03;;;;;;;598.75;430.75;;;;;;;;;;5012526;28;20032;-84
2021/05/05 12:23:42;;;;;;;596.55;414.88;;;;;;;;;;5018241;28;20025;-80
2021/05/05 12:26:12;;;;;;;620.05;446.55;;;;;;;;;;5029295;28;20029;-84
2021/05/05 12:28:38;;;;;;;;;;;;;;;;;;5011868;28;20358;-82
2021/05/05 12:31:04;;;;;;;606.75;467.80;;;;;;;;;;5039185;28;19919;-80
2021/05/05 12:33:30;;;;;;;606.80;490.20;;;;;;;;;;5020509;28;20030;-82
2021/05/05 12:35:56;;;;;;;581.83;471.48;;;;;;;;;;5015457;28;20500;-83
2021/05/05 12:38:23;;;;;;;608.75;488.95;;;;;;;;;;5031993;28;20021;-79
2021/05/05 12:40:49;;;;;;;621.67;501.48;;;;;;;;;;5049862;28;20362;-78
2021/05/05 12:43:17;;;;;;;637.33;526.28;;;;;;;;;;5026516;28;20036;-86
2021/05/05 12:45:43;;;;;;;637.75;524.55;;;;;;;;;;5029790;28;20133;-84
2021/05/05 12:48:09;;;;;;;651.67;551.05;;;;;;;;;;5030463;28;20036;-82
2021/05/05 12:50:40;;;;;;;609.97;523.00;;;;;;;;;;5031276;28;20032;-83
2021/05/05 12:53:07;;;;;;;607.03;530.13;;;;;;;;;;5037640;28;20025;-82
2021/05/05 12:55:34;;;;;;;606.53;525.53;;;;;;;;;;5027867;28;20029;-80
2021/05/05 12:58:06;;;;;;;644.75;557.40;;;;;;;;;;5047122;28;20075;-80
2021/05/05 13:00:33;;;;;;;629.75;542.53;;;;;;;;;;5027713;28;20112;-84
2021/05/05 13:03:06;;;;;;;621.95;519.53;;;;;;;;;;5022149;28;20017;-84
2021/05/05 13:05:32;;;;;;;643.85;540.40;;;;;;;;;;5034697;28;20066;-84
2021/05/05 13:08:08;;;;;;;599.45;490.55;;;;;;;;;;5031095;28;20079;-81
2021/05/05 13:10:47;;;;;;;596.20;488.45;;;;;;;;;;5035949;28;20488;-85
2021/05/05 13:13:18;;;;;;;604.50;482.10;;;;;;;;;;5025802;28;20043;-81
2021/05/05 13:32:30;;;;;;;673.50;498.45;;;;;;;;;;5053418;28;20025;-85
2021/05/05 13:34:56;;;;;;;648.90;483.42;;;;;;;;;;5040686;28;20020;-77
2021/05/05 13:37:23;;;;;;;626.85;473.55;;;;;;;;;;5056026;28;20495;-83
2021/05/05 13:39:49;;;;;;;630.88;457.10;;;;;;;;;;5035722;28;20075;-79
2021/05/05 13:42:15;;;;;;;626.40;427.10;;;;;;;;;;5026509;28;20392;-81
2021/05/05 13:44:50;;;;;;;620.35;421.92;;;;;;;;;;5033863;28;20056;-82
2021/05/05 13:47:30;;;;;;;620.20;401.90;;;;;;;;;;5030748;28;20045;-79
2021/05/05 13:49:57;;;;;;;660.38;435.95;;;;;;;;;;5022339;28;20049;-79
2021/05/05 13:52:24;;;;;;;640.17;421.75;;;;;;;;;;5030655;28;20033;-87
2021/05/05 13:54:50;;;;;;;657.60;444.42;;;;;;;;;;5030939;28;20029;-80
2021/05/05 13:57:16;;;;;;;718.90;508.33;;;;;;;;;;5027722;28;20443;-86
2021/05/05 13:59:43;;;;;;;660.65;471.83;;;;;;;;;;5031478;28;20432;-87
2021/05/05 14:02:10;;;;;;;512.28;374.65;;;;;;;;;;5043118;28;20037;-80
2021/05/05 14:04:37;;;;;;;496.10;362.40;;;;;;;;;;5027280;28;20234;-80
2021/05/05 14:07:05;;;;;;;498.92;362.30;;;;;;;;;;5027063;28;20487;-85
2021/05/05 14:09:31;;;;;;;499.65;363.52;;;;;;;;;;5028897;28;20029;-82
2021/05/05 14:12:00;;;;;;;497.77;368.92;;;;;;;;;;5040124;28;20030;-78
2021/05/05 14:14:27;;;;;;;502.88;368.85;;;;;;;;;;5032230;28;20033;-82
2021/05/05 14:16:59;;;;;;;495.52;357.67;;;;;;;;;;5033200;28;20480;-83
2021/05/05 14:19:26;;;;;;;486.90;339.05;;;;;;;;;;5034532;28;20468;-85
2021/05/05 14:21:52;;;;;;;484.58;320.52;;;;;;;;;;5032846;28;20032;-84
2021/05/05 14:24:18;;;;;;;490.73;322.35;;;;;;;;;;5023293;28;20041;-78